Time;durP1;ratioP1;P1;durP2;ratioP2;P2;SDS_P1;SDS_P2;PMS_P1;PMS_P2;Temp;Humidity;BMP_temperature;BMP_pressure;BME280_temperature;BME280_humidity;BME280_pressure;Samples;Min_cycle;Max_cycle;Signal;HPM_P1;HPM_P2
2022/01/08 00:01:56;;;;;;;5.37;3.77;;;4.80;99.90;;;;;;5073389;28;20246;-74
2022/01/08 00:04:22;;;;;;;4.37;3.10;;;4.80;99.90;;;;;;5073442;28;20181;-74
2022/01/08 00:06:48;;;;;;;6.83;3.40;;;4.80;99.90;;;;;;5072703;28;20177;-74
2022/01/08 00:09:14;;;;;;;3.80;2.97;;;4.80;99.90;;;;;;5072955;28;20641;-74
2022/01/08 00:11:42;;;;;;;5.07;3.23;;;4.80;99.90;;;;;;5072839;28;20173;-74
2022/01/08 00:14:10;;;;;;;3.87;3.00;;;4.80;99.90;;;;;;5072212;28;20173;-74
2022/01/08 00:16:37;;;;;;;4.10;3.00;;;4.80;99.90;;;;;;5066182;28;20681;-74
2022/01/08 00:19:06;;;;;;;3.83;2.87;;;4.80;99.90;;;;;;5067907;28;20633;-74
2022/01/08 00:21:33;;;;;;;4.17;2.87;;;4.80;99.90;;;;;;5072677;28;20676;-74
2022/01/08 00:23:59;;;;;;;6.00;2.90;;;4.80;99.90;;;;;;5071357;28;20176;-74
2022/01/08 00:26:24;;;;;;;5.67;3.20;;;4.80;99.90;;;;;;5072365;28;20193;-74
2022/01/08 00:28:50;;;;;;;6.00;3.30;;;4.80;99.90;;;;;;5072490;28;20202;-74
2022/01/08 00:31:16;;;;;;;4.83;3.13;;;4.80;99.90;;;;;;5072835;28;20185;-74
2022/01/08 00:33:42;;;;;;;4.53;3.37;;;4.80;99.90;;;;;;5073022;28;20197;-74
2022/01/08 00:36:08;;;;;;;4.63;3.33;;;4.80;99.90;;;;;;5077503;28;20266;-74
2022/01/08 00:38:34;;;;;;;6.63;3.67;;;4.80;99.90;;;;;;5072294;28;20603;-74
2022/01/08 00:41:00;;;;;;;6.43;3.60;;;4.80;99.90;;;;;;5070352;28;20185;-74
2022/01/08 00:43:26;;;;;;;4.27;3.30;;;4.80;99.90;;;;;;5070958;28;20788;-74
2022/01/08 00:45:52;;;;;;;4.37;3.40;;;4.80;99.90;;;;;;5071931;28;20188;-74
2022/01/08 00:48:19;;;;;;;5.73;3.97;;;4.80;99.90;;;;;;5072406;28;20191;-74
2022/01/08 00:50:44;;;;;;;4.37;2.90;;;4.80;99.90;;;;;;5072693;28;20177;-74
2022/01/08 00:53:10;;;;;;;3.17;2.83;;;4.80;99.90;;;;;;5071979;28;20551;-74
2022/01/08 00:55:36;;;;;;;3.73;2.93;;;4.80;99.90;;;;;;5072158;28;20548;-74
2022/01/08 00:58:02;;;;;;;4.23;2.97;;;4.80;99.90;;;;;;5054348;28;20189;-74
2022/01/08 01:00:28;;;;;;;4.50;3.07;;;4.80;99.90;;;;;;5053864;28;20181;-74
2022/01/08 01:02:54;;;;;;;4.70;3.07;;;4.90;99.90;;;;;;5071543;28;20245;-74
2022/01/08 01:05:21;;;;;;;3.50;2.83;;;4.80;99.90;;;;;;5071712;28;20223;-74
2022/01/08 01:07:47;;;;;;;3.97;3.17;;;4.80;99.90;;;;;;5067988;28;20242;-74
2022/01/08 01:10:15;;;;;;;3.80;2.83;;;4.80;99.90;;;;;;5070854;28;20178;-74
2022/01/08 01:12:41;;;;;;;5.70;2.87;;;4.80;99.90;;;;;;5066264;28;20197;-74
2022/01/08 01:15:12;;;;;;;3.80;2.80;;;4.80;99.90;;;;;;5053957;28;20192;-74
2022/01/08 01:17:38;;;;;;;4.55;2.80;;;4.80;99.90;;;;;;5071424;28;20410;-80
2022/01/08 01:20:05;;;;;;;3.30;2.27;;;4.90;99.90;;;;;;5062213;28;20706;-74
2022/01/08 01:22:42;;;;;;;3.43;2.23;;;4.90;99.90;;;;;;5057198;28;20201;-74
2022/01/08 01:25:11;;;;;;;3.93;2.30;;;4.90;99.90;;;;;;5071593;28;20929;-74
2022/01/08 01:27:55;;;;;;;2.90;2.10;;;5.00;99.90;;;;;;5070366;28;20177;-74
2022/01/08 01:30:38;;;;;;;6.03;2.60;;;5.00;99.90;;;;;;5071189;28;20226;-75
2022/01/08 01:41:35;;;;;;;5.93;2.47;;;5.00;99.90;;;;;;5057285;28;20185;-76
2022/01/08 01:49:04;;;;;;;6.60;2.60;;;5.00;99.90;;;;;;5065399;28;20263;-75
2022/01/08 01:51:30;;;;;;;3.47;2.30;;;5.00;99.90;;;;;;5067207;28;20174;-75
2022/01/08 01:53:56;;;;;;;3.60;2.10;;;5.00;99.90;;;;;;5063606;28;20189;-75
2022/01/08 01:56:22;;;;;;;4.10;2.30;;;5.00;99.90;;;;;;5069144;28;20200;-75
2022/01/08 01:58:49;;;;;;;3.40;2.00;;;5.10;99.90;;;;;;5056000;28;20190;-74
2022/01/08 02:01:15;;;;;;;3.37;2.10;;;5.00;99.90;;;;;;5064684;28;20176;-75
2022/01/08 02:03:42;;;;;;;2.67;2.07;;;5.10;99.90;;;;;;5056611;28;20197;-75
2022/01/08 02:06:08;;;;;;;4.33;2.13;;;5.10;99.90;;;;;;5065593;28;20802;-75
2022/01/08 02:08:35;;;;;;;3.33;1.90;;;5.00;99.90;;;;;;5059221;28;20208;-75
2022/01/08 02:11:01;;;;;;;3.80;2.20;;;5.00;99.90;;;;;;5061671;28;20169;-75
2022/01/08 02:13:28;;;;;;;4.87;2.30;;;5.00;99.90;;;;;;5065841;28;20753;-75
2022/01/08 02:15:55;;;;;;;3.27;2.13;;;5.00;99.90;;;;;;5045349;28;20197;-75
2022/01/08 02:18:25;;;;;;;3.77;2.03;;;5.00;99.90;;;;;;5058950;28;20170;-75
2022/01/08 02:20:56;;;;;;;3.27;1.90;;;4.90;99.90;;;;;;5060905;28;20185;-75
2022/01/08 02:23:22;;;;;;;4.03;2.07;;;4.90;99.90;;;;;;5044357;28;20714;-75
2022/01/08 02:25:52;;;;;;;4.03;2.20;;;4.90;99.90;;;;;;5066484;28;20194;-75
2022/01/08 02:28:18;;;;;;;4.20;2.20;;;4.80;99.90;;;;;;5070469;28;20181;-75
2022/01/08 02:30:44;;;;;;;3.57;2.20;;;4.80;99.90;;;;;;5071331;28;20502;-75
2022/01/08 02:33:10;;;;;;;4.37;2.00;;;4.80;99.90;;;;;;5069253;28;20193;-75
2022/01/08 02:35:36;;;;;;;2.83;1.83;;;4.80;99.90;;;;;;5070653;28;20734;-75
2022/01/08 02:38:02;;;;;;;2.60;2.10;;;4.70;99.90;;;;;;5068287;28;20173;-75
2022/01/08 02:40:28;;;;;;;2.20;1.90;;;4.60;99.90;;;;;;5070009;28;20184;-75
2022/01/08 02:43:02;;;;;;;4.53;2.00;;;4.60;99.90;;;;;;5070657;28;20595;-75
2022/01/08 02:45:29;;;;;;;4.57;1.90;;;4.60;99.90;;;;;;5069995;28;20270;-75
2022/01/08 02:47:56;;;;;;;2.83;1.97;;;4.50;99.90;;;;;;5070464;28;20184;-75
2022/01/08 02:50:23;;;;;;;3.33;2.07;;;4.50;99.90;;;;;;5053370;28;20189;-75
2022/01/08 02:52:49;;;;;;;3.47;2.20;;;4.40;99.90;;;;;;5070258;28;20225;-75
2022/01/08 02:55:17;;;;;;;4.40;2.07;;;4.40;99.90;;;;;;5069936;28;20215;-75
2022/01/08 02:57:43;;;;;;;3.60;2.17;;;4.40;99.90;;;;;;5076798;28;20678;-75
2022/01/08 03:00:12;;;;;;;3.10;2.00;;;4.40;99.90;;;;;;5074599;28;20176;-75
2022/01/08 03:02:43;;;;;;;2.97;2.10;;;4.30;99.90;;;;;;5060915;28;20189;-75
2022/01/08 03:05:11;;;;;;;4.13;1.90;;;4.30;99.90;;;;;;5073206;28;20290;-75
2022/01/08 03:07:41;;;;;;;2.50;1.90;;;4.30;99.90;;;;;;5072568;28;20289;-76
2022/01/08 03:10:12;;;;;;;3.37;1.93;;;4.20;99.90;;;;;;5074828;28;20209;-74
2022/01/08 03:12:41;;;;;;;3.60;1.90;;;4.10;99.90;;;;;;5073508;28;20573;-74
2022/01/08 03:15:13;;;;;;;5.00;2.23;;;4.00;99.90;;;;;;5072551;28;20260;-74
2022/01/08 03:17:40;;;;;;;1.80;1.47;;;4.00;99.90;;;;;;5071721;28;20711;-74
2022/01/08 03:20:10;;;;;;;3.03;2.07;;;4.00;99.90;;;;;;5074337;28;20176;-74
2022/01/08 03:22:37;;;;;;;4.03;2.07;;;3.90;99.90;;;;;;5073686;28;20684;-75
2022/01/08 03:25:04;;;;;;;2.53;1.80;;;3.80;99.90;;;;;;5073183;28;20207;-75
2022/01/08 03:27:31;;;;;;;2.10;1.60;;;3.70;99.90;;;;;;5073599;28;20184;-75
2022/01/08 03:29:57;;;;;;;2.03;1.40;;;3.60;99.90;;;;;;5073942;28;20204;-75
2022/01/08 03:32:23;;;;;;;3.20;1.90;;;3.60;99.90;;;;;;5074449;28;20239;-75
2022/01/08 03:34:49;;;;;;;3.43;2.00;;;3.60;99.90;;;;;;5052129;28;20185;-74
2022/01/08 03:37:15;;;;;;;3.13;2.00;;;3.60;99.90;;;;;;5065228;28;20757;-75
2022/01/08 03:39:41;;;;;;;3.90;2.27;;;3.50;99.90;;;;;;5072919;28;20250;-75
2022/01/08 03:42:07;;;;;;;3.20;2.30;;;3.50;99.90;;;;;;5066537;28;20237;-74
2022/01/08 03:44:33;;;;;;;3.27;2.40;;;3.40;99.90;;;;;;5049721;28;20703;-74
2022/01/08 03:47:21;;;;;;;3.83;2.23;;;3.50;99.90;;;;;;5072542;28;20180;-74
2022/01/08 03:49:45;;;;;;;4.40;2.73;;;3.50;99.90;;;;;;5071974;28;20192;-74
2022/01/08 03:52:12;;;;;;;5.97;2.50;;;3.50;99.90;;;;;;5073506;28;20649;-74
2022/01/08 03:54:39;;;;;;;4.47;2.43;;;3.50;99.90;;;;;;5072378;28;20220;-75
2022/01/08 03:57:05;;;;;;;2.93;2.00;;;3.40;99.90;;;;;;5071876;28;20313;-74
2022/01/08 03:59:30;;;;;;;3.30;2.13;;;3.40;99.90;;;;;;5072749;28;20675;-74
2022/01/08 04:01:57;;;;;;;2.40;1.70;;;3.40;99.90;;;;;;5072327;28;20190;-74
2022/01/08 04:04:22;;;;;;;3.20;1.90;;;3.50;99.90;;;;;;5072959;28;20181;-75
2022/01/08 04:06:48;;;;;;;4.40;2.13;;;3.60;99.90;;;;;;5071311;28;20553;-74
2022/01/08 04:09:14;;;;;;;4.00;2.17;;;3.60;99.90;;;;;;5072461;28;20177;-75
2022/01/08 04:11:40;;;;;;;2.87;2.17;;;3.60;99.90;;;;;;5072053;28;20188;-74
2022/01/08 04:14:06;;;;;;;4.23;2.00;;;3.60;99.90;;;;;;5073452;28;20185;-74
2022/01/08 04:16:35;;;;;;;3.50;2.53;;;3.70;99.90;;;;;;5070029;28;20261;-74
2022/01/08 04:19:01;;;;;;;3.20;2.50;;;3.70;99.90;;;;;;5073278;28;20227;-75
2022/01/08 04:23:53;;;;;;;4.23;2.50;;;3.80;99.90;;;;;;5071381;28;20199;-75
2022/01/08 04:26:22;;;;;;;4.97;2.70;;;3.80;99.90;;;;;;5062014;28;20193;-75
2022/01/08 04:28:48;;;;;;;4.37;2.20;;;3.80;99.90;;;;;;5071379;28;20173;-74
2022/01/08 04:31:15;;;;;;;5.47;2.40;;;3.70;99.90;;;;;;5052158;28;20178;-75
2022/01/08 04:33:40;;;;;;;4.13;2.50;;;3.70;99.90;;;;;;5070387;28;20254;-75
2022/01/08 04:36:07;;;;;;;3.90;2.90;;;3.70;99.90;;;;;;5071840;28;20201;-75
2022/01/08 04:38:33;;;;;;;4.50;2.63;;;3.80;99.90;;;;;;5072352;28;20178;-75
2022/01/08 04:41:00;;;;;;;4.60;2.73;;;3.80;99.90;;;;;;5072370;28;20200;-75
2022/01/08 04:43:26;;;;;;;4.00;2.73;;;3.80;99.90;;;;;;5069891;28;20212;-74
2022/01/08 04:45:52;;;;;;;4.53;3.00;;;3.80;99.90;;;;;;5071910;28;20672;-74
2022/01/08 04:48:18;;;;;;;5.13;2.80;;;3.80;99.90;;;;;;5072811;28;20173;-75
2022/01/08 04:50:44;;;;;;;4.67;2.60;;;3.80;99.90;;;;;;5070295;28;20189;-75
2022/01/08 04:53:10;;;;;;;5.50;2.70;;;3.80;99.90;;;;;;5072799;28;20564;-75
2022/01/08 04:55:37;;;;;;;5.53;3.20;;;3.70;99.90;;;;;;5070291;28;20616;-75
2022/01/08 04:58:05;;;;;;;6.03;3.33;;;3.70;99.90;;;;;;5064374;28;20169;-75
2022/01/08 05:00:31;;;;;;;3.60;3.00;;;3.60;99.90;;;;;;5068758;28;20177;-75
2022/01/08 05:02:58;;;;;;;4.47;3.13;;;3.40;99.90;;;;;;5069166;28;20208;-74
2022/01/08 05:05:24;;;;;;;3.33;2.70;;;3.30;99.90;;;;;;5063015;28;20173;-74
2022/01/08 05:07:50;;;;;;;4.27;2.57;;;3.30;99.90;;;;;;5072151;28;20228;-75
2022/01/08 05:10:15;;;;;;;4.27;2.70;;;3.20;99.90;;;;;;5070134;28;20679;-75
2022/01/08 05:12:41;;;;;;;4.00;2.70;;;3.20;99.90;;;;;;5070337;28;20703;-75
2022/01/08 05:15:08;;;;;;;3.33;2.47;;;3.10;99.90;;;;;;5070869;28;20181;-75
2022/01/08 05:17:38;;;;;;;2.70;2.33;;;3.10;99.90;;;;;;5071002;28;20197;-75
2022/01/08 05:20:13;;;;;;;3.80;3.40;;;3.00;99.90;;;;;;5069732;28;20185;-75
2022/01/08 05:25:13;;;;;;;4.33;3.77;;;2.90;99.90;;;;;;5071407;28;20556;-75
2022/01/08 05:27:39;;;;;;;5.57;4.27;;;2.80;99.90;;;;;;5053041;28;20189;-74
2022/01/08 05:30:06;;;;;;;5.47;4.80;;;2.80;99.90;;;;;;5071498;28;20173;-75
2022/01/08 05:32:32;;;;;;;5.77;5.10;;;2.80;99.90;;;;;;5066060;28;20193;-74
2022/01/08 05:34:58;;;;;;;7.10;5.40;;;2.80;99.90;;;;;;5070449;28;20260;-74
2022/01/08 05:37:23;;;;;;;6.23;5.60;;;2.70;99.90;;;;;;5071094;28;20617;-74
2022/01/08 05:39:50;;;;;;;6.73;6.03;;;2.70;99.90;;;;;;5070453;28;20180;-75
2022/01/08 05:42:16;;;;;;;6.13;5.53;;;2.70;99.90;;;;;;5068876;28;20213;-74
2022/01/08 05:44:42;;;;;;;5.73;4.80;;;2.70;99.90;;;;;;5070679;28;20546;-74
2022/01/08 05:47:08;;;;;;;5.80;5.20;;;2.80;99.90;;;;;;5068877;28;20268;-74
2022/01/08 05:49:34;;;;;;;5.77;5.13;;;2.80;99.90;;;;;;5070716;28;20180;-74
2022/01/08 05:51:59;;;;;;;5.73;5.13;;;2.80;99.90;;;;;;5069853;28;20248;-74
2022/01/08 05:54:25;;;;;;;5.60;5.00;;;2.80;99.90;;;;;;5072289;28;20177;-74
2022/01/08 05:56:51;;;;;;;6.67;5.40;;;2.80;99.90;;;;;;5070528;28;20204;-74
2022/01/08 05:59:18;;;;;;;6.77;6.07;;;2.80;99.90;;;;;;5071559;28;20177;-74
2022/01/08 06:01:44;;;;;;;6.63;5.77;;;2.80;99.90;;;;;;5069079;28;20604;-74
2022/01/08 06:04:10;;;;;;;7.67;5.90;;;2.80;99.90;;;;;;5070842;28;20219;-74
2022/01/08 06:06:39;;;;;;;7.60;6.27;;;2.90;99.90;;;;;;5069812;28;20185;-74
2022/01/08 06:09:05;;;;;;;7.30;6.30;;;2.90;99.90;;;;;;5070697;28;20181;-75
2022/01/08 06:11:31;;;;;;;8.03;5.57;;;2.90;99.90;;;;;;5052312;28;20185;-75
2022/01/08 06:13:56;;;;;;;6.07;5.47;;;2.90;99.90;;;;;;5070844;28;20173;-75
2022/01/08 06:16:22;;;;;;;5.87;5.07;;;3.00;99.90;;;;;;5069290;28;20227;-74
2022/01/08 06:18:48;;;;;;;6.87;4.53;;;3.00;99.90;;;;;;5062878;28;20790;-75
2022/01/08 06:21:13;;;;;;;5.97;4.80;;;3.00;99.90;;;;;;5051064;28;20174;-75
2022/01/08 06:23:39;;;;;;;4.30;3.90;;;3.00;99.90;;;;;;5068467;28;20193;-75
2022/01/08 06:26:06;;;;;;;5.10;4.20;;;3.10;99.90;;;;;;5070653;28;20177;-74
2022/01/08 06:28:33;;;;;;;4.90;4.30;;;3.10;99.90;;;;;;5068294;28;20632;-74
2022/01/08 06:30:59;;;;;;;5.30;4.60;;;3.10;99.90;;;;;;5063749;28;20549;-74
2022/01/08 06:33:25;;;;;;;6.43;4.73;;;3.10;99.90;;;;;;5073019;28;20205;-74
2022/01/08 06:35:51;;;;;;;5.23;4.50;;;3.20;99.90;;;;;;5074519;28;20197;-75
2022/01/08 06:38:18;;;;;;;5.10;4.30;;;3.20;99.90;;;;;;5073231;28;20181;-75
2022/01/08 06:40:45;;;;;;;5.80;4.77;;;3.20;99.90;;;;;;5074037;28;20193;-75
2022/01/08 06:43:11;;;;;;;5.37;4.27;;;3.30;99.90;;;;;;5057447;28;20209;-75
2022/01/08 06:45:37;;;;;;;5.53;4.00;;;3.30;99.90;;;;;;5067428;28;20181;-75
2022/01/08 06:48:03;;;;;;;4.90;4.20;;;3.30;99.90;;;;;;5071055;28;20341;-75
2022/01/08 06:50:29;;;;;;;6.40;4.73;;;3.30;99.90;;;;;;5066629;28;20177;-75
2022/01/08 06:52:55;;;;;;;4.67;3.97;;;3.30;99.90;;;;;;5075438;28;20197;-74
2022/01/08 06:55:21;;;;;;;5.73;4.40;;;3.30;99.90;;;;;;5073932;28;20203;-74
2022/01/08 06:57:48;;;;;;;5.73;4.20;;;;;;;;;;5074699;28;20178;-74
2022/01/08 07:00:14;;;;;;;5.83;4.40;;;3.50;99.90;;;;;;5074848;28;20665;-75
2022/01/08 07:02:40;;;;;;;6.80;4.40;;;3.50;99.90;;;;;;5072494;28;20189;-75
2022/01/08 07:05:06;;;;;;;5.30;4.57;;;3.50;99.90;;;;;;5072337;28;20177;-75
2022/01/08 07:07:31;;;;;;;8.40;4.27;;;3.50;99.90;;;;;;5074013;28;20946;-75
2022/01/08 07:09:57;;;;;;;5.73;4.40;;;3.50;99.90;;;;;;5072775;28;20181;-74
2022/01/08 07:12:23;;;;;;;6.00;4.53;;;3.50;99.90;;;;;;5073476;28;20205;-75
2022/01/08 07:14:49;;;;;;;6.17;4.50;;;3.60;99.90;;;;;;5072776;28;20181;-75
2022/01/08 07:17:15;;;;;;;6.47;5.27;;;3.60;99.90;;;;;;5073719;28;20223;-74
2022/01/08 07:19:40;;;;;;;5.73;4.73;;;3.60;99.90;;;;;;5073023;28;20181;-74
2022/01/08 07:22:06;;;;;;;5.47;4.47;;;3.60;99.90;;;;;;5073777;28;20193;-75
2022/01/08 07:24:32;;;;;;;6.53;4.30;;;3.60;99.90;;;;;;5074268;28;20174;-74
2022/01/08 07:26:58;;;;;;;6.20;4.83;;;3.60;99.90;;;;;;5072237;28;20177;-74
2022/01/08 07:29:24;;;;;;;7.23;4.30;;;3.50;99.90;;;;;;5072236;28;20260;-74
2022/01/08 07:31:49;;;;;;;7.87;4.87;;;3.50;99.90;;;;;;5072810;28;20177;-74
2022/01/08 07:34:15;;;;;;;7.53;4.87;;;3.50;99.90;;;;;;5073928;28;20181;-74
2022/01/08 07:36:41;;;;;;;6.33;4.63;;;3.50;99.90;;;;;;5068818;28;20216;-75
2022/01/08 07:39:07;;;;;;;6.80;4.50;;;3.60;99.90;;;;;;5066707;28;20196;-74
2022/01/08 07:41:32;;;;;;;5.53;4.50;;;3.60;99.90;;;;;;5071926;28;20721;-74
2022/01/08 07:43:58;;;;;;;6.87;4.47;;;3.60;99.90;;;;;;5070986;28;20208;-74
2022/01/08 07:46:24;;;;;;;6.30;4.40;;;3.60;99.90;;;;;;5072756;28;20648;-74
2022/01/08 07:48:50;;;;;;;7.97;4.80;;;3.60;99.90;;;;;;5073192;28;20272;-74
2022/01/08 07:51:16;;;;;;;7.30;5.17;;;3.70;99.90;;;;;;5072467;28;20185;-74
2022/01/08 07:53:42;;;;;;;7.47;5.63;;;3.70;99.90;;;;;;5071821;28;20968;-74
2022/01/08 07:56:07;;;;;;;7.23;5.97;;;3.80;99.90;;;;;;5068465;28;21007;-74
2022/01/08 07:58:33;;;;;;;7.03;5.80;;;3.80;99.90;;;;;;5069902;28;20234;-74
2022/01/08 08:00:59;;;;;;;8.70;5.90;;;3.80;99.90;;;;;;5055049;28;20182;-74
2022/01/08 08:03:25;;;;;;;8.20;6.30;;;3.80;99.90;;;;;;5079892;28;20571;-74
2022/01/08 08:05:51;;;;;;;7.00;5.17;;;3.80;99.90;;;;;;5070823;28;20173;-74
2022/01/08 08:08:18;;;;;;;7.13;4.57;;;3.80;99.90;;;;;;5069457;28;20178;-75
2022/01/08 08:10:47;;;;;;;6.50;4.87;;;3.80;99.90;;;;;;5071095;28;20184;-75
2022/01/08 08:13:14;;;;;;;7.50;5.50;;;3.80;99.90;;;;;;5068069;28;20197;-74
2022/01/08 08:15:40;;;;;;;7.83;5.73;;;3.80;99.90;;;;;;5072703;28;20918;-75
2022/01/08 08:18:06;;;;;;;9.40;5.40;;;3.80;99.90;;;;;;5071053;28;20177;-74
2022/01/08 08:20:32;;;;;;;9.83;7.50;;;3.80;99.90;;;;;;5072333;28;20177;-74
2022/01/08 08:22:58;;;;;;;8.47;6.17;;;3.90;99.90;;;;;;5070281;28;20197;-74
2022/01/08 08:25:24;;;;;;;7.77;5.90;;;4.00;99.90;;;;;;5067520;28;20250;-75
2022/01/08 08:27:50;;;;;;;6.43;4.90;;;3.90;99.90;;;;;;5070270;28;20248;-75
2022/01/08 08:30:16;;;;;;;7.30;6.00;;;4.00;99.90;;;;;;5072705;28;20708;-75
2022/01/08 08:32:43;;;;;;;8.40;5.70;;;4.00;99.90;;;;;;5063150;28;20688;-75
2022/01/08 08:35:09;;;;;;;7.77;5.50;;;4.10;99.90;;;;;;5064040;28;20169;-75
2022/01/08 08:37:36;;;;;;;6.23;5.07;;;4.10;99.90;;;;;;5072964;28;20743;-75
2022/01/08 08:40:05;;;;;;;12.07;7.10;;;4.10;99.90;;;;;;5071380;28;20555;-73
2022/01/08 08:42:31;;;;;;;17.63;11.67;;;4.10;99.90;;;;;;5073164;28;20217;-75
2022/01/08 08:44:57;;;;;;;11.30;8.30;;;4.10;99.90;;;;;;5072316;28;20212;-77
2022/01/08 08:47:23;;;;;;;9.67;7.63;;;4.10;99.90;;;;;;5045555;28;20174;-77
2022/01/08 08:49:48;;;;;;;9.33;6.80;;;4.10;99.90;;;;;;5069549;28;20202;-77
2022/01/08 08:52:14;;;;;;;17.20;11.77;;;4.00;99.90;;;;;;5072503;28;20204;-79
2022/01/08 08:54:42;;;;;;;11.10;7.70;;;4.10;99.90;;;;;;5071481;28;20173;-77
2022/01/08 08:57:08;;;;;;;12.77;9.17;;;4.20;99.90;;;;;;5037923;28;20210;-77
2022/01/08 08:59:36;;;;;;;10.50;5.90;;;4.20;99.90;;;;;;5053549;28;20170;-77
2022/01/08 09:02:02;;;;;;;7.73;5.37;;;4.20;99.90;;;;;;5070880;28;20197;-77
2022/01/08 09:04:27;;;;;;;6.67;4.90;;;4.30;99.90;;;;;;5066077;28;20189;-76
2022/01/08 09:06:53;;;;;;;8.20;4.60;;;4.30;99.90;;;;;;5069861;28;20549;-77
2022/01/08 09:09:20;;;;;;;7.70;4.17;;;4.30;99.90;;;;;;5070402;28;20185;-77
2022/01/08 09:11:45;;;;;;;7.67;4.30;;;4.30;99.90;;;;;;5067351;28;20174;-77
2022/01/08 09:14:11;;;;;;;10.57;4.47;;;4.30;99.90;;;;;;5069290;28;20173;-77
2022/01/08 09:16:38;;;;;;;9.27;5.43;;;4.30;99.90;;;;;;5071247;28;20205;-77
2022/01/08 09:19:04;;;;;;;7.03;4.30;;;4.30;99.90;;;;;;5070845;28;20263;-77
2022/01/08 09:21:30;;;;;;;7.30;3.87;;;4.40;99.90;;;;;;5048569;28;20184;-77
2022/01/08 09:23:56;;;;;;;6.50;4.47;;;4.40;99.90;;;;;;5050510;28;20197;-76
2022/01/08 09:26:22;;;;;;;6.80;4.17;;;4.20;99.90;;;;;;5068708;28;20243;-74
2022/01/08 09:28:48;;;;;;;8.10;4.70;;;4.30;99.90;;;;;;5073059;28;20185;-76
2022/01/08 09:31:17;;;;;;;7.87;4.20;;;4.20;99.90;;;;;;5070823;28;20184;-71
2022/01/08 09:33:42;;;;;;;8.13;4.17;;;4.30;99.90;;;;;;5069490;28;20193;-71
2022/01/08 09:36:08;;;;;;;9.63;5.00;;;4.30;99.90;;;;;;5065412;28;20199;-72
2022/01/08 09:38:34;;;;;;;10.27;5.30;;;4.30;99.90;;;;;;5064259;28;20600;-72
2022/01/08 09:41:00;;;;;;;8.87;5.60;;;4.40;99.90;;;;;;5062225;28;20176;-72
2022/01/08 09:43:26;;;;;;;8.10;5.00;;;4.40;99.90;;;;;;5062847;28;20688;-71
2022/01/08 09:45:52;;;;;;;7.90;4.80;;;4.40;99.90;;;;;;5064914;28;20533;-71
2022/01/08 09:48:18;;;;;;;9.00;4.63;;;4.50;99.90;;;;;;5058525;28;20176;-75
2022/01/08 09:50:44;;;;;;;7.93;5.07;;;4.50;99.90;;;;;;5063664;28;20672;-73
2022/01/08 09:53:09;;;;;;;9.03;4.60;;;4.60;99.90;;;;;;5072149;28;20210;-73
2022/01/08 09:55:35;;;;;;;8.33;5.50;;;4.60;99.90;;;;;;5057368;28;20595;-76
2022/01/08 09:58:02;;;;;;;8.37;4.83;;;4.60;99.90;;;;;;5048680;28;20173;-74
2022/01/08 10:00:31;;;;;;;9.37;4.73;;;4.60;99.90;;;;;;5066544;28;20183;-75
2022/01/08 10:03:14;;;;;;;9.43;4.37;;;4.70;99.90;;;;;;5069939;28;20201;-75
2022/01/08 10:05:56;;;;;;;10.90;4.30;;;4.70;99.90;;;;;;5069200;28;20195;-74
2022/01/08 10:08:27;;;;;;;8.13;4.37;;;4.80;99.90;;;;;;5068034;28;20174;-75
2022/01/08 10:10:55;;;;;;;9.17;4.23;;;4.90;99.90;;;;;;5067860;28;20173;-75
2022/01/08 10:13:24;;;;;;;8.73;4.00;;;5.00;99.90;;;;;;5070083;28;20205;-76
2022/01/08 10:18:40;;;;;;;6.33;3.63;;;5.00;99.90;;;;;;5065551;28;20181;-75
2022/01/08 10:21:20;;;;;;;7.77;3.90;;;5.00;99.90;;;;;;5065002;28;20165;-74
2022/01/08 10:23:52;;;;;;;8.80;4.20;;;5.10;99.90;;;;;;5064813;28;20278;-73
2022/01/08 10:26:20;;;;;;;8.07;4.30;;;5.10;99.90;;;;;;5066770;28;20181;-74
2022/01/08 10:28:56;;;;;;;11.03;4.60;;;5.10;99.90;;;;;;5067349;28;20173;-73
2022/01/08 10:31:27;;;;;;;7.57;4.00;;;5.20;99.90;;;;;;5068136;28;20185;-73
2022/01/08 10:34:09;;;;;;;11.30;4.07;;;5.20;99.90;;;;;;5065952;28;20550;-74
2022/01/08 10:36:37;;;;;;;7.93;4.43;;;5.40;99.90;;;;;;5064480;28;20200;-73
2022/01/08 10:39:05;;;;;;;8.73;4.20;;;5.40;99.90;;;;;;5048129;28;20180;-74
2022/01/08 10:41:31;;;;;;;8.60;4.70;;;5.50;99.90;;;;;;5059902;28;20303;-73
2022/01/08 10:44:12;;;;;;;7.03;4.20;;;5.60;99.90;;;;;;5060869;28;20291;-73
2022/01/08 10:46:42;;;;;;;10.37;5.07;;;5.70;99.90;;;;;;5061834;28;20226;-74
2022/01/08 10:49:08;;;;;;;9.07;4.43;;;5.80;99.90;;;;;;5061805;28;20182;-74
2022/01/08 10:51:37;;;;;;;8.50;4.07;;;5.80;99.90;;;;;;5062715;28;20185;-72
2022/01/08 10:54:08;;;;;;;9.83;4.20;;;5.80;99.90;;;;;;5061754;28;20213;-75
2022/01/08 10:56:45;;;;;;;9.17;4.10;;;5.90;99.90;;;;;;5060498;28;20209;-73
2022/01/08 10:59:22;;;;;;;6.03;3.80;;;5.90;99.90;;;;;;5060221;28;20359;-72
2022/01/08 11:01:57;;;;;;;5.97;4.10;;;5.90;99.90;;;;;;5061753;28;20181;-74
2022/01/08 11:04:32;;;;;;;7.90;3.83;;;6.00;99.90;;;;;;5061133;28;20222;-73
2022/01/08 11:07:01;;;;;;;9.20;3.90;;;5.90;99.90;;;;;;5035381;28;20536;-73
2022/01/08 11:09:28;;;;;;;6.67;3.80;;;6.00;99.90;;;;;;5061746;28;20272;-73
2022/01/08 11:11:56;;;;;;;9.03;3.60;;;6.00;99.90;;;;;;5060030;28;20205;-77
2022/01/08 11:17:24;;;;;;;6.73;3.57;;;6.20;99.90;;;;;;5063358;28;20201;-75
2022/01/08 11:19:53;;;;;;;8.33;3.30;;;6.30;99.90;;;;;;5064639;28;20848;-75
2022/01/08 11:22:24;;;;;;;8.40;3.50;;;6.20;99.90;;;;;;5064184;28;20246;-76
2022/01/08 11:24:55;;;;;;;8.03;3.93;;;6.10;99.90;;;;;;5064715;28;20276;-75
2022/01/08 11:27:24;;;;;;;6.63;3.70;;;6.10;99.90;;;;;;5066354;28;20209;-75
2022/01/08 11:29:57;;;;;;;7.40;3.50;;;6.00;99.90;;;;;;5067266;28;20193;-75
2022/01/08 11:32:26;;;;;;;5.30;3.50;;;6.00;99.90;;;;;;5066940;28;21434;-75
2022/01/08 11:34:53;;;;;;;7.33;3.70;;;5.90;99.90;;;;;;5065371;28;20189;-75
2022/01/08 11:37:22;;;;;;;5.57;3.20;;;6.00;99.90;;;;;;5067072;28;20294;-75
2022/01/08 11:39:51;;;;;;;5.83;3.27;;;6.00;99.90;;;;;;5063882;28;20858;-76
2022/01/08 11:42:19;;;;;;;11.37;3.20;;;6.10;99.90;;;;;;5063725;28;20224;-76
2022/01/08 11:44:47;;;;;;;6.80;2.70;;;6.10;99.90;;;;;;5065508;28;20208;-76
2022/01/08 11:47:13;;;;;;;5.40;2.47;;;6.20;99.90;;;;;;5064991;28;20238;-75
2022/01/08 11:49:41;;;;;;;7.90;2.83;;;6.20;99.20;;;;;;5064940;28;20181;-76
2022/01/08 11:52:32;;;;;;;5.77;2.77;;;6.10;97.00;;;;;;5064780;28;20296;-75
2022/01/08 11:54:59;;;;;;;4.97;2.70;;;6.10;95.20;;;;;;5064158;28;20757;-76
2022/01/08 11:57:27;;;;;;;6.37;2.90;;;6.20;99.90;;;;;;5065279;28;20208;-75
2022/01/08 11:59:58;;;;;;;4.27;3.20;;;6.30;99.90;;;;;;5065106;28;20635;-75
2022/01/08 12:02:38;;;;;;;6.63;2.80;;;6.50;99.30;;;;;;5064531;28;20200;-75
2022/01/08 12:05:05;;;;;;;6.00;3.50;;;6.60;96.20;;;;;;5065163;28;20250;-76
2022/01/08 12:07:38;;;;;;;7.90;4.20;;;6.60;95.20;;;;;;5065739;28;20486;-75
2022/01/08 12:10:23;;;;;;;3.83;2.83;;;6.70;96.90;;;;;;5064960;28;20177;-75
2022/01/08 12:13:00;;;;;;;4.03;2.43;;;6.60;95.10;;;;;;5063711;28;20213;-75
2022/01/08 12:15:41;;;;;;;7.77;3.97;;;6.60;93.50;;;;;;5063318;28;20180;-74
2022/01/08 12:18:07;;;;;;;18.47;10.60;;;6.80;97.20;;;;;;5065474;28;20656;-76
2022/01/08 12:20:44;;;;;;;6.00;3.47;;;6.90;98.80;;;;;;5062097;28;20189;-76
2022/01/08 12:23:30;;;;;;;7.03;4.30;;;7.00;92.40;;;;;;5062894;28;20642;-78
2022/01/08 12:25:57;;;;;;;6.00;3.00;;;7.00;97.00;;;;;;5063890;28;20185;-77
2022/01/08 12:28:52;;;;;;;8.47;2.60;;;7.30;97.50;;;;;;5047827;28;20247;-74
2022/01/08 12:31:21;;;;;;;4.07;2.20;;;7.60;92.30;;;;;;5060549;28;20300;-74
2022/01/08 12:34:07;;;;;;;5.30;2.30;;;7.70;90.70;;;;;;5061344;28;20205;-74
2022/01/08 12:36:34;;;;;;;6.00;2.73;;;7.70;87.10;;;;;;5059696;28;20247;-75
2022/01/08 12:39:03;;;;;;;4.73;2.47;;;7.50;87.10;;;;;;5063565;28;20177;-73
2022/01/08 12:41:29;;;;;;;4.00;2.47;;;7.40;89.70;;;;;;5057726;28;20281;-74
2022/01/08 12:43:54;;;;;;;4.87;2.23;;;7.20;88.10;;;;;;5057416;28;20577;-74
2022/01/08 12:46:24;;;;;;;5.00;2.50;;;7.00;91.00;;;;;;5062138;28;20204;-74
2022/01/08 12:49:08;;;;;;;5.30;2.70;;;6.80;92.10;;;;;;5060445;28;20569;-74
2022/01/08 12:52:03;;;;;;;6.33;2.70;;;6.60;96.60;;;;;;5060916;28;20745;-74
2022/01/08 12:54:30;;;;;;;5.57;2.87;;;6.50;94.90;;;;;;5062117;28;20185;-75
2022/01/08 12:57:00;;;;;;;6.27;2.87;;;6.50;95.70;;;;;;5062130;28;20262;-75
2022/01/08 12:59:35;;;;;;;6.37;2.90;;;6.70;97.70;;;;;;5062916;28;20181;-75
2022/01/08 13:02:05;;;;;;;6.47;3.03;;;6.70;95.60;;;;;;5063921;28;20196;-75
2022/01/08 13:04:31;;;;;;;5.23;3.40;;;6.60;97.20;;;;;;5060546;28;20185;-76
2022/01/08 13:06:56;;;;;;;4.77;2.87;;;6.50;98.30;;;;;;5060176;28;20274;-75
2022/01/08 13:09:22;;;;;;;4.97;2.60;;;6.40;98.20;;;;;;5061052;28;20672;-74
2022/01/08 13:11:48;;;;;;;7.83;2.60;;;6.40;99.20;;;;;;5061682;28;20661;-75
2022/01/08 13:14:21;;;;;;;6.37;2.80;;;6.30;99.90;;;;;;5046314;28;20189;-75
2022/01/08 13:16:50;;;;;;;4.80;2.60;;;6.20;99.90;;;;;;5061385;28;20646;-75
2022/01/08 13:19:17;;;;;;;5.37;2.97;;;6.10;99.90;;;;;;5060260;28;20182;-75
2022/01/08 13:21:48;;;;;;;8.87;3.70;;;6.10;99.90;;;;;;5062469;28;20264;-75
2022/01/08 13:24:22;;;;;;;8.37;3.33;;;6.10;99.90;;;;;;5062421;28;20645;-75
2022/01/08 13:27:03;;;;;;;4.83;3.40;;;6.10;99.90;;;;;;5060904;28;20707;-76